sensor_id;sensor_type;location;lat;lon;timestamp;pressure;altitude;pressure_sealevel;temperature;humidity
30949;BME280;17637;51.984;21.208;2023-11-21T00:00:56;99547.28;;;-0.39;96.34
30949;BME280;17637;51.984;21.208;2023-11-21T00:03:28;99555.97;;;-0.43;96.40
30949;BME280;17637;51.984;21.208;2023-11-21T00:06:00;99525.56;;;-0.49;96.12
30949;BME280;17637;51.984;21.208;2023-11-21T00:08:32;99538.88;;;-0.41;96.33
30949;BME280;17637;51.984;21.208;2023-11-21T00:11:04;99556.78;;;-0.20;96.18
30949;BME280;17637;51.984;21.208;2023-11-21T00:13:37;99556.75;;;-0.41;95.85
30949;BME280;17637;51.984;21.208;2023-11-21T00:16:09;99556.50;;;-0.57;96.22
30949;BME280;17637;51.984;21.208;2023-11-21T00:18:42;99551.44;;;-0.58;96.38
30949;BME280;17637;51.984;21.208;2023-11-21T00:21:14;99545.16;;;-0.72;96.93
30949;BME280;17637;51.984;21.208;2023-11-21T00:23:46;99569.97;;;-0.53;96.73
30949;BME280;17637;51.984;21.208;2023-11-21T00:26:17;99583.66;;;-0.34;96.52
30949;BME280;17637;51.984;21.208;2023-11-21T00:28:50;99562.19;;;-0.50;95.30
30949;BME280;17637;51.984;21.208;2023-11-21T00:31:22;99575.19;;;-0.34;95.18
30949;BME280;17637;51.984;21.208;2023-11-21T00:33:54;99571.50;;;-0.49;96.11
30949;BME280;17637;51.984;21.208;2023-11-21T00:36:27;99569.84;;;-0.50;95.90
30949;BME280;17637;51.984;21.208;2023-11-21T00:38:59;99585.16;;;-0.50;95.90
30949;BME280;17637;51.984;21.208;2023-11-21T00:41:31;99582.38;;;-0.66;96.36
30949;BME280;17637;51.984;21.208;2023-11-21T00:44:03;99582.91;;;-0.58;96.03
30949;BME280;17637;51.984;21.208;2023-11-21T00:46:35;99593.34;;;-0.64;96.51
30949;BME280;17637;51.984;21.208;2023-11-21T00:49:07;99563.19;;;-0.76;96.33
30949;BME280;17637;51.984;21.208;2023-11-21T00:51:39;99575.78;;;-0.50;95.49
30949;BME280;17637;51.984;21.208;2023-11-21T00:54:11;99570.72;;;-0.73;95.97
30949;BME280;17637;51.984;21.208;2023-11-21T00:56:43;99563.91;;;-0.73;95.89
30949;BME280;17637;51.984;21.208;2023-11-21T00:59:15;99602.03;;;-0.46;95.02
30949;BME280;17637;51.984;21.208;2023-11-21T01:01:46;99591.94;;;-0.49;95.55
30949;BME280;17637;51.984;21.208;2023-11-21T01:04:18;99588.31;;;-0.43;94.98
30949;BME280;17637;51.984;21.208;2023-11-21T01:06:50;99588.66;;;-0.53;95.61
30949;BME280;17637;51.984;21.208;2023-11-21T01:09:22;99586.00;;;-0.50;95.60
30949;BME280;17637;51.984;21.208;2023-11-21T01:11:54;99588.91;;;-0.37;94.85
30949;BME280;17637;51.984;21.208;2023-11-21T01:14:26;99600.59;;;-0.53;94.76
30949;BME280;17637;51.984;21.208;2023-11-21T01:17:00;99592.06;;;-0.52;95.10
30949;BME280;17637;51.984;21.208;2023-11-21T01:19:32;99593.72;;;-0.51;94.46
30949;BME280;17637;51.984;21.208;2023-11-21T01:22:04;99571.00;;;-0.81;94.75
30949;BME280;17637;51.984;21.208;2023-11-21T01:24:36;99609.28;;;-0.57;95.21
30949;BME280;17637;51.984;21.208;2023-11-21T01:27:08;99603.16;;;-0.53;94.76
30949;BME280;17637;51.984;21.208;2023-11-21T01:29:40;99575.50;;;-0.64;94.52
30949;BME280;17637;51.984;21.208;2023-11-21T01:32:12;99612.34;;;-0.49;94.18
30949;BME280;17637;51.984;21.208;2023-11-21T01:34:44;99609.13;;;-0.54;94.18
30949;BME280;17637;51.984;21.208;2023-11-21T01:37:16;99612.25;;;-0.46;94.43
30949;BME280;17637;51.984;21.208;2023-11-21T01:39:49;99596.72;;;-0.63;94.32
30949;BME280;17637;51.984;21.208;2023-11-21T01:42:21;99608.78;;;-0.45;93.74
30949;BME280;17637;51.984;21.208;2023-11-21T01:44:53;99608.97;;;-0.50;93.99
30949;BME280;17637;51.984;21.208;2023-11-21T01:47:26;99585.44;;;-0.80;94.58
30949;BME280;17637;51.984;21.208;2023-11-21T01:49:58;99600.69;;;-0.78;94.25
30949;BME280;17637;51.984;21.208;2023-11-21T01:52:30;99599.13;;;-0.83;94.65
30949;BME280;17637;51.984;21.208;2023-11-21T01:55:04;99593.00;;;-0.77;95.18
30949;BME280;17637;51.984;21.208;2023-11-21T01:57:37;99617.84;;;-0.82;94.53
30949;BME280;17637;51.984;21.208;2023-11-21T02:00:13;99615.97;;;-0.78;93.72
30949;BME280;17637;51.984;21.208;2023-11-21T02:02:48;99578.09;;;-1.11;94.39
30949;BME280;17637;51.984;21.208;2023-11-21T02:05:20;99590.56;;;-1.04;94.14
30949;BME280;17637;51.984;21.208;2023-11-21T02:07:53;99614.34;;;-0.79;94.62
30949;BME280;17637;51.984;21.208;2023-11-21T02:10:25;99608.28;;;-0.77;94.58
30949;BME280;17637;51.984;21.208;2023-11-21T02:12:56;99606.91;;;-0.86;94.31
30949;BME280;17637;51.984;21.208;2023-11-21T02:15:30;99625.72;;;-0.88;94.84
30949;BME280;17637;51.984;21.208;2023-11-21T02:18:01;99629.16;;;-0.89;95.62
30949;BME280;17637;51.984;21.208;2023-11-21T02:20:35;99605.53;;;-0.94;95.47
30949;BME280;17637;51.984;21.208;2023-11-21T02:23:08;99624.19;;;-0.94;95.07
30949;BME280;17637;51.984;21.208;2023-11-21T02:25:40;99625.06;;;-0.95;94.83
30949;BME280;17637;51.984;21.208;2023-11-21T02:28:14;99602.13;;;-0.95;94.47
30949;BME280;17637;51.984;21.208;2023-11-21T02:30:48;99618.00;;;-0.87;94.58
30949;BME280;17637;51.984;21.208;2023-11-21T02:33:27;99630.91;;;-0.91;94.00
30949;BME280;17637;51.984;21.208;2023-11-21T02:35:59;99613.06;;;-0.91;94.17
30949;BME280;17637;51.984;21.208;2023-11-21T02:38:31;99615.78;;;-0.96;94.01
30949;BME280;17637;51.984;21.208;2023-11-21T02:41:03;99638.25;;;-0.82;93.43
30949;BME280;17637;51.984;21.208;2023-11-21T02:43:35;99637.06;;;-0.97;93.56
30949;BME280;17637;51.984;21.208;2023-11-21T02:46:08;99629.59;;;-0.78;93.61
30949;BME280;17637;51.984;21.208;2023-11-21T02:48:40;99595.94;;;-1.11;93.37
30949;BME280;17637;51.984;21.208;2023-11-21T02:51:12;99624.97;;;-0.92;93.51
30949;BME280;17637;51.984;21.208;2023-11-21T02:53:43;99599.16;;;-1.06;93.19
30949;BME280;17637;51.984;21.208;2023-11-21T02:56:15;99626.75;;;-0.94;93.08
30949;BME280;17637;51.984;21.208;2023-11-21T02:58:47;99636.00;;;-0.91;93.24
30949;BME280;17637;51.984;21.208;2023-11-21T03:01:19;99640.22;;;-0.90;92.87
30949;BME280;17637;51.984;21.208;2023-11-21T03:03:51;99599.03;;;-1.27;92.89
30949;BME280;17637;51.984;21.208;2023-11-21T03:06:23;99636.47;;;-1.04;92.51
30949;BME280;17637;51.984;21.208;2023-11-21T03:08:55;99631.38;;;-1.04;92.26
30949;BME280;17637;51.984;21.208;2023-11-21T03:11:27;99619.44;;;-1.28;92.91
30949;BME280;17637;51.984;21.208;2023-11-21T03:13:58;99650.72;;;-1.23;93.36
30949;BME280;17637;51.984;21.208;2023-11-21T03:16:32;99644.00;;;-1.26;94.12
30949;BME280;17637;51.984;21.208;2023-11-21T03:19:04;99628.78;;;-1.27;94.34
30949;BME280;17637;51.984;21.208;2023-11-21T03:21:36;99621.38;;;-1.60;93.56
30949;BME280;17637;51.984;21.208;2023-11-21T03:24:08;99637.69;;;-1.39;93.98
30949;BME280;17637;51.984;21.208;2023-11-21T03:26:40;99639.34;;;-1.38;93.76
30949;BME280;17637;51.984;21.208;2023-11-21T03:29:12;99628.88;;;-1.30;93.10
30949;BME280;17637;51.984;21.208;2023-11-21T03:31:44;99653.84;;;-1.15;93.14
30949;BME280;17637;51.984;21.208;2023-11-21T03:34:26;99642.91;;;-1.44;93.69
30949;BME280;17637;51.984;21.208;2023-11-21T03:36:59;99664.31;;;-1.23;94.18
30949;BME280;17637;51.984;21.208;2023-11-21T03:39:31;99635.69;;;-1.31;93.83
30949;BME280;17637;51.984;21.208;2023-11-21T03:42:03;99626.22;;;-1.27;93.90
30949;BME280;17637;51.984;21.208;2023-11-21T03:44:35;99657.59;;;-1.25;93.52
30949;BME280;17637;51.984;21.208;2023-11-21T03:47:06;99663.19;;;-1.16;92.96
30949;BME280;17637;51.984;21.208;2023-11-21T03:49:38;99660.97;;;-1.25;92.71
30949;BME280;17637;51.984;21.208;2023-11-21T03:52:10;99638.28;;;-1.33;92.50
30949;BME280;17637;51.984;21.208;2023-11-21T03:54:42;99655.78;;;-1.22;92.68
30949;BME280;17637;51.984;21.208;2023-11-21T03:57:15;99675.50;;;-1.27;93.22
30949;BME280;17637;51.984;21.208;2023-11-21T03:59:47;99674.34;;;-1.18;93.06
30949;BME280;17637;51.984;21.208;2023-11-21T04:02:19;99663.72;;;-1.31;92.61
30949;BME280;17637;51.984;21.208;2023-11-21T04:04:51;99687.25;;;-1.23;92.65
30949;BME280;17637;51.984;21.208;2023-11-21T04:07:23;99677.00;;;-1.21;93.03
30949;BME280;17637;51.984;21.208;2023-11-21T04:09:55;99696.00;;;-1.05;93.05
30949;BME280;17637;51.984;21.208;2023-11-21T04:12:27;99675.50;;;-1.52;93.79
30949;BME280;17637;51.984;21.208;2023-11-21T04:14:59;99685.72;;;-1.27;93.33
30949;BME280;17637;51.984;21.208;2023-11-21T04:17:30;99670.97;;;-1.44;93.58
30949;BME280;17637;51.984;21.208;2023-11-21T04:20:04;99674.19;;;-1.66;93.83
30949;BME280;17637;51.984;21.208;2023-11-21T04:22:42;99682.63;;;-1.63;94.35
30949;BME280;17637;51.984;21.208;2023-11-21T04:25:18;99679.72;;;-1.53;94.23
30949;BME280;17637;51.984;21.208;2023-11-21T04:27:50;99680.41;;;-1.48;93.03
30949;BME280;17637;51.984;21.208;2023-11-21T04:30:22;99692.44;;;-1.26;93.45
30949;BME280;17637;51.984;21.208;2023-11-21T04:32:53;99684.75;;;-1.50;92.89
30949;BME280;17637;51.984;21.208;2023-11-21T04:35:25;99705.38;;;-1.57;93.50
30949;BME280;17637;51.984;21.208;2023-11-21T04:37:57;99705.75;;;-1.43;92.51
30949;BME280;17637;51.984;21.208;2023-11-21T04:40:29;99688.06;;;-1.48;92.10
30949;BME280;17637;51.984;21.208;2023-11-21T04:43:01;99677.91;;;-1.49;92.12
30949;BME280;17637;51.984;21.208;2023-11-21T04:45:33;99678.53;;;-1.41;92.53
30949;BME280;17637;51.984;21.208;2023-11-21T04:48:05;99695.91;;;-1.27;92.08
30949;BME280;17637;51.984;21.208;2023-11-21T04:50:38;99681.69;;;-1.34;92.48
30949;BME280;17637;51.984;21.208;2023-11-21T04:53:10;99711.44;;;-1.35;92.18
30949;BME280;17637;51.984;21.208;2023-11-21T04:55:44;99699.63;;;-1.37;92.71
30949;BME280;17637;51.984;21.208;2023-11-21T04:58:17;99722.03;;;-1.20;92.37
30949;BME280;17637;51.984;21.208;2023-11-21T05:00:49;99721.88;;;-1.42;93.13
30949;BME280;17637;51.984;21.208;2023-11-21T05:03:21;99716.25;;;-1.52;93.14
30949;BME280;17637;51.984;21.208;2023-11-21T05:05:55;99714.91;;;-1.37;93.38
30949;BME280;17637;51.984;21.208;2023-11-21T05:08:27;99688.47;;;-1.87;93.21
30949;BME280;17637;51.984;21.208;2023-11-21T05:10:59;99724.03;;;-1.57;93.75
30949;BME280;17637;51.984;21.208;2023-11-21T05:13:31;99715.47;;;-1.54;93.47
30949;BME280;17637;51.984;21.208;2023-11-21T05:16:05;99729.09;;;-1.55;94.06
30949;BME280;17637;51.984;21.208;2023-11-21T05:18:37;99720.56;;;-1.54;93.66
30949;BME280;17637;51.984;21.208;2023-11-21T05:21:09;99717.81;;;-1.48;93.67
30949;BME280;17637;51.984;21.208;2023-11-21T05:23:41;99707.06;;;-1.85;94.01
30949;BME280;17637;51.984;21.208;2023-11-21T05:26:13;99738.25;;;-1.76;93.20
30949;BME280;17637;51.984;21.208;2023-11-21T05:28:44;99743.78;;;-1.63;94.47
30949;BME280;17637;51.984;21.208;2023-11-21T05:31:16;99751.50;;;-1.65;94.47
30949;BME280;17637;51.984;21.208;2023-11-21T05:33:48;99741.38;;;-1.68;94.48
30949;BME280;17637;51.984;21.208;2023-11-21T05:36:20;99752.25;;;-1.61;93.16
30949;BME280;17637;51.984;21.208;2023-11-21T05:38:52;99767.31;;;-1.55;93.47
30949;BME280;17637;51.984;21.208;2023-11-21T05:41:24;99756.66;;;-1.67;93.35
30949;BME280;17637;51.984;21.208;2023-11-21T05:43:57;99767.97;;;-1.49;93.37
30949;BME280;17637;51.984;21.208;2023-11-21T05:46:29;99769.28;;;-1.63;94.17
30949;BME280;17637;51.984;21.208;2023-11-21T05:49:01;99723.00;;;-1.78;93.65
30949;BME280;17637;51.984;21.208;2023-11-21T05:51:32;99751.25;;;-1.57;93.63
30949;BME280;17637;51.984;21.208;2023-11-21T05:54:04;99740.88;;;-1.51;92.80
30949;BME280;17637;51.984;21.208;2023-11-21T05:56:36;99762.72;;;-1.44;92.78
30949;BME280;17637;51.984;21.208;2023-11-21T05:59:09;99782.00;;;-1.35;93.01
30949;BME280;17637;51.984;21.208;2023-11-21T06:01:41;99749.69;;;-1.61;92.42
30949;BME280;17637;51.984;21.208;2023-11-21T06:04:13;99792.47;;;-1.44;92.75
30949;BME280;17637;51.984;21.208;2023-11-21T06:06:46;99778.66;;;-1.64;93.74
30949;BME280;17637;51.984;21.208;2023-11-21T06:09:18;99785.13;;;-1.54;93.85
30949;BME280;17637;51.984;21.208;2023-11-21T06:11:50;99802.63;;;-1.43;93.21
30949;BME280;17637;51.984;21.208;2023-11-21T06:14:21;99794.34;;;-1.50;93.26
30949;BME280;17637;51.984;21.208;2023-11-21T06:16:53;99798.09;;;-1.35;92.70
30949;BME280;17637;51.984;21.208;2023-11-21T06:19:27;99802.00;;;-1.50;93.58
30949;BME280;17637;51.984;21.208;2023-11-21T06:21:59;99791.34;;;-1.62;92.94
30949;BME280;17637;51.984;21.208;2023-11-21T06:24:31;99799.63;;;-1.56;92.66
30949;BME280;17637;51.984;21.208;2023-11-21T06:27:04;99801.88;;;-1.46;93.06
30949;BME280;17637;51.984;21.208;2023-11-21T06:29:36;99777.56;;;-1.57;92.51
30949;BME280;17637;51.984;21.208;2023-11-21T06:32:08;99741.91;;;-1.85;91.94
30949;BME280;17637;51.984;21.208;2023-11-21T06:34:40;99818.50;;;-1.35;92.46
30949;BME280;17637;51.984;21.208;2023-11-21T06:37:12;99794.34;;;-1.50;92.19
30949;BME280;17637;51.984;21.208;2023-11-21T06:39:44;99813.00;;;-1.49;91.91
30949;BME280;17637;51.984;21.208;2023-11-21T06:42:16;99808.47;;;-1.68;92.94
30949;BME280;17637;51.984;21.208;2023-11-21T06:44:48;99837.09;;;-1.59;94.07
30949;BME280;17637;51.984;21.208;2023-11-21T06:47:20;99803.44;;;-1.69;93.85
30949;BME280;17637;51.984;21.208;2023-11-21T06:49:52;99818.84;;;-1.45;93.65
30949;BME280;17637;51.984;21.208;2023-11-21T06:52:24;99791.09;;;-1.55;93.33
30949;BME280;17637;51.984;21.208;2023-11-21T06:54:57;99797.13;;;-1.57;92.82
30949;BME280;17637;51.984;21.208;2023-11-21T06:57:29;99834.31;;;-1.23;92.26
30949;BME280;17637;51.984;21.208;2023-11-21T07:00:01;99836.03;;;-1.24;91.88
30949;BME280;17637;51.984;21.208;2023-11-21T07:02:34;99832.00;;;-1.31;92.69
30949;BME280;17637;51.984;21.208;2023-11-21T07:05:06;99843.03;;;-1.30;91.95
30949;BME280;17637;51.984;21.208;2023-11-21T07:07:38;99840.75;;;-1.40;91.81
30949;BME280;17637;51.984;21.208;2023-11-21T07:10:10;99828.13;;;-1.43;92.19
30949;BME280;17637;51.984;21.208;2023-11-21T07:12:42;99817.28;;;-1.50;91.89
30949;BME280;17637;51.984;21.208;2023-11-21T07:15:14;99853.25;;;-1.30;91.54
30949;BME280;17637;51.984;21.208;2023-11-21T07:17:46;99848.16;;;-1.30;92.61
30949;BME280;17637;51.984;21.208;2023-11-21T07:20:20;99859.72;;;-1.20;91.60
30949;BME280;17637;51.984;21.208;2023-11-21T07:22:53;99865.28;;;-1.36;91.02
30949;BME280;17637;51.984;21.208;2023-11-21T07:25:24;99856.16;;;-1.43;92.44
30949;BME280;17637;51.984;21.208;2023-11-21T07:27:57;99878.06;;;-1.37;91.81
30949;BME280;17637;51.984;21.208;2023-11-21T07:30:29;99850.94;;;-1.67;91.50
30949;BME280;17637;51.984;21.208;2023-11-21T07:33:00;99845.25;;;-1.48;91.97
30949;BME280;17637;51.984;21.208;2023-11-21T07:35:32;99887.44;;;-1.38;92.05
30949;BME280;17637;51.984;21.208;2023-11-21T07:38:04;99880.06;;;-1.47;91.95
30949;BME280;17637;51.984;21.208;2023-11-21T07:40:36;99860.19;;;-1.36;91.50
30949;BME280;17637;51.984;21.208;2023-11-21T07:43:08;99885.69;;;-1.36;91.90
30949;BME280;17637;51.984;21.208;2023-11-21T07:45:40;99880.31;;;-1.26;92.32
30949;BME280;17637;51.984;21.208;2023-11-21T07:48:17;99841.00;;;-1.48;92.46
30949;BME280;17637;51.984;21.208;2023-11-21T07:50:49;99870.69;;;-1.18;91.65
30949;BME280;17637;51.984;21.208;2023-11-21T07:53:20;99864.22;;;-1.28;92.41
30949;BME280;17637;51.984;21.208;2023-11-21T07:55:53;99857.41;;;-1.28;92.09
30949;BME280;17637;51.984;21.208;2023-11-21T07:58:25;99888.00;;;-1.00;91.17
30949;BME280;17637;51.984;21.208;2023-11-21T08:00:57;99881.16;;;-0.99;90.87
30949;BME280;17637;51.984;21.208;2023-11-21T08:03:30;99875.28;;;-1.01;90.45
30949;BME280;17637;51.984;21.208;2023-11-21T08:06:02;99884.13;;;-1.13;90.65
30949;BME280;17637;51.984;21.208;2023-11-21T08:08:37;99882.63;;;-1.19;90.01
30949;BME280;17637;51.984;21.208;2023-11-21T08:11:09;99886.78;;;-1.16;90.55
30949;BME280;17637;51.984;21.208;2023-11-21T08:13:41;99895.25;;;-1.16;90.73
30949;BME280;17637;51.984;21.208;2023-11-21T08:16:14;99885.69;;;-1.36;90.46
30949;BME280;17637;51.984;21.208;2023-11-21T08:18:46;99898.16;;;-1.26;91.01
30949;BME280;17637;51.984;21.208;2023-11-21T08:21:18;99891.53;;;-1.32;91.33
30949;BME280;17637;51.984;21.208;2023-11-21T08:23:51;99870.66;;;-1.45;91.61
30949;BME280;17637;51.984;21.208;2023-11-21T08:26:25;99880.03;;;-1.45;91.31
30949;BME280;17637;51.984;21.208;2023-11-21T08:28:57;99893.66;;;-1.18;91.37
30949;BME280;17637;51.984;21.208;2023-11-21T08:31:30;99900.41;;;-1.17;91.50
30949;BME280;17637;51.984;21.208;2023-11-21T08:34:02;99882.44;;;-1.41;91.65
30949;BME280;17637;51.984;21.208;2023-11-21T08:36:34;99896.41;;;-1.54;91.52
30949;BME280;17637;51.984;21.208;2023-11-21T08:39:06;99899.38;;;-1.38;92.05
30949;BME280;17637;51.984;21.208;2023-11-21T08:41:38;99916.34;;;-1.39;92.90
30949;BME280;17637;51.984;21.208;2023-11-21T08:44:10;99912.81;;;-1.33;92.76
30949;BME280;17637;51.984;21.208;2023-11-21T08:46:42;99914.50;;;-1.34;91.95
30949;BME280;17637;51.984;21.208;2023-11-21T08:49:15;99915.38;;;-1.35;92.53
30949;BME280;17637;51.984;21.208;2023-11-21T08:51:47;99918.50;;;-1.25;92.41
30949;BME280;17637;51.984;21.208;2023-11-21T08:54:19;99921.91;;;-1.24;92.45
30949;BME280;17637;51.984;21.208;2023-11-21T08:56:52;99907.47;;;-1.54;92.31
30949;BME280;17637;51.984;21.208;2023-11-21T08:59:25;99916.41;;;-1.40;92.59
30949;BME280;17637;51.984;21.208;2023-11-21T09:01:57;99903.19;;;-1.25;92.60
30949;BME280;17637;51.984;21.208;2023-11-21T09:04:28;99926.94;;;-1.23;92.03
30949;BME280;17637;51.984;21.208;2023-11-21T09:07:00;99883.31;;;-1.42;92.10
30949;BME280;17637;51.984;21.208;2023-11-21T09:09:32;99931.91;;;-1.18;92.33
30949;BME280;17637;51.984;21.208;2023-11-21T09:12:05;99921.28;;;-1.33;92.07
30949;BME280;17637;51.984;21.208;2023-11-21T09:14:37;99920.34;;;-1.30;92.56
30949;BME280;17637;51.984;21.208;2023-11-21T09:17:10;99931.06;;;-1.19;91.68
30949;BME280;17637;51.984;21.208;2023-11-21T09:19:44;99919.13;;;-1.46;92.07
30949;BME280;17637;51.984;21.208;2023-11-21T09:22:18;99928.75;;;-1.26;91.78
30949;BME280;17637;51.984;21.208;2023-11-21T09:24:51;99924.88;;;-1.40;91.38
30949;BME280;17637;51.984;21.208;2023-11-21T09:27:24;99949.09;;;-1.25;91.52
30949;BME280;17637;51.984;21.208;2023-11-21T09:29:57;99945.03;;;-1.30;91.67
30949;BME280;17637;51.984;21.208;2023-11-21T09:32:29;99942.94;;;-1.18;92.24
30949;BME280;17637;51.984;21.208;2023-11-21T09:35:01;99952.91;;;-1.10;91.55
30949;BME280;17637;51.984;21.208;2023-11-21T09:37:34;99948.59;;;-1.08;91.67
30949;BME280;17637;51.984;21.208;2023-11-21T09:40:10;99943.59;;;-1.11;90.44
30949;BME280;17637;51.984;21.208;2023-11-21T09:42:55;99946.56;;;-0.96;89.96
30949;BME280;17637;51.984;21.208;2023-11-21T09:45:34;99953.78;;;-0.83;90.07
30949;BME280;17637;51.984;21.208;2023-11-21T09:48:07;99958.19;;;-0.88;89.79
30949;BME280;17637;51.984;21.208;2023-11-21T09:50:42;99955.47;;;-0.81;90.09
30949;BME280;17637;51.984;21.208;2023-11-21T09:53:19;99936.03;;;-1.14;89.92
30949;BME280;17637;51.984;21.208;2023-11-21T09:55:53;99955.78;;;-0.92;89.91
30949;BME280;17637;51.984;21.208;2023-11-21T09:58:26;99951.94;;;-1.06;89.61
30949;BME280;17637;51.984;21.208;2023-11-21T10:00:59;99957.44;;;-0.91;89.79
30949;BME280;17637;51.984;21.208;2023-11-21T10:03:31;99948.19;;;-0.94;89.23
30949;BME280;17637;51.984;21.208;2023-11-21T10:06:07;99941.84;;;-1.09;89.47
30949;BME280;17637;51.984;21.208;2023-11-21T10:08:41;99941.69;;;-1.04;89.27
30949;BME280;17637;51.984;21.208;2023-11-21T10:11:25;99960.41;;;-1.04;90.43
30949;BME280;17637;51.984;21.208;2023-11-21T10:13:58;99973.03;;;-1.01;89.63
30949;BME280;17637;51.984;21.208;2023-11-21T10:16:31;99943.94;;;-1.23;90.45
30949;BME280;17637;51.984;21.208;2023-11-21T10:19:04;99975.38;;;-0.93;89.80
30949;BME280;17637;51.984;21.208;2023-11-21T10:21:42;99974.72;;;-1.00;90.57
30949;BME280;17637;51.984;21.208;2023-11-21T10:24:14;99966.72;;;-1.17;89.90
30949;BME280;17637;51.984;21.208;2023-11-21T10:26:47;99956.00;;;-1.00;89.42
30949;BME280;17637;51.984;21.208;2023-11-21T10:29:24;99961.34;;;-1.08;89.70
30949;BME280;17637;51.984;21.208;2023-11-21T10:31:59;99962.59;;;-0.93;89.37
30949;BME280;17637;51.984;21.208;2023-11-21T10:34:31;99966.41;;;-0.78;88.58
30949;BME280;17637;51.984;21.208;2023-11-21T10:37:12;99960.75;;;-0.88;88.31
30949;BME280;17637;51.984;21.208;2023-11-21T10:39:44;99961.56;;;-0.86;87.63
30949;BME280;17637;51.984;21.208;2023-11-21T10:42:18;99964.38;;;-0.67;87.59
30949;BME280;17637;51.984;21.208;2023-11-21T10:44:53;99938.16;;;-0.72;87.95
30949;BME280;17637;51.984;21.208;2023-11-21T10:47:25;99964.38;;;-0.68;87.80
30949;BME280;17637;51.984;21.208;2023-11-21T10:50:00;99948.16;;;-0.66;87.67
30949;BME280;17637;51.984;21.208;2023-11-21T10:52:32;99953.31;;;-0.67;88.19
30949;BME280;17637;51.984;21.208;2023-11-21T10:55:18;99947.44;;;-0.97;87.82
30949;BME280;17637;51.984;21.208;2023-11-21T10:57:54;99962.59;;;-0.64;87.88
30949;BME280;17637;51.984;21.208;2023-11-21T11:00:28;99973.41;;;-0.56;86.82
30949;BME280;17637;51.984;21.208;2023-11-21T11:03:00;99968.28;;;-0.56;87.26
30949;BME280;17637;51.984;21.208;2023-11-21T11:05:33;99949.00;;;-0.65;86.63
30949;BME280;17637;51.984;21.208;2023-11-21T11:08:08;99953.66;;;-0.51;86.58
30949;BME280;17637;51.984;21.208;2023-11-21T11:10:40;99961.56;;;-0.59;86.56
30949;BME280;17637;51.984;21.208;2023-11-21T11:13:12;99964.19;;;-0.62;86.52
30949;BME280;17637;51.984;21.208;2023-11-21T11:15:47;99980.50;;;-0.66;87.57
30949;BME280;17637;51.984;21.208;2023-11-21T11:18:19;99970.06;;;-0.58;87.39
30949;BME280;17637;51.984;21.208;2023-11-21T11:20:53;99968.31;;;-0.58;86.88
30949;BME280;17637;51.984;21.208;2023-11-21T11:23:57;99975.69;;;-0.75;86.49
30949;BME280;17637;51.984;21.208;2023-11-21T11:26:45;99977.41;;;-0.49;87.30
30949;BME280;17637;51.984;21.208;2023-11-21T11:29:34;99972.66;;;-0.60;87.42
30949;BME280;17637;51.984;21.208;2023-11-21T11:32:19;99990.03;;;-0.71;86.68
30949;BME280;17637;51.984;21.208;2023-11-21T11:38:02;99980.97;;;-0.81;86.97
30949;BME280;17637;51.984;21.208;2023-11-21T11:40:41;99982.72;;;-0.82;87.20
30949;BME280;17637;51.984;21.208;2023-11-21T11:43:25;99985.28;;;-0.84;87.19
30949;BME280;17637;51.984;21.208;2023-11-21T11:46:03;100000.97;;;-0.68;87.39
30949;BME280;17637;51.984;21.208;2023-11-21T11:48:39;100003.13;;;-0.82;87.40
30949;BME280;17637;51.984;21.208;2023-11-21T11:51:13;99983.94;;;-0.95;87.48
30949;BME280;17637;51.984;21.208;2023-11-21T11:53:47;100011.25;;;-0.71;87.50
30949;BME280;17637;51.984;21.208;2023-11-21T11:56:22;99967.13;;;-1.01;87.71
30949;BME280;17637;51.984;21.208;2023-11-21T11:58:56;99989.28;;;-0.75;88.21
30949;BME280;17637;51.984;21.208;2023-11-21T12:01:30;100006.22;;;-0.72;88.62
30949;BME280;17637;51.984;21.208;2023-11-21T12:07:04;99983.66;;;-0.86;88.61
30949;BME280;17637;51.984;21.208;2023-11-21T12:09:37;99987.41;;;-0.70;88.49
30949;BME280;17637;51.984;21.208;2023-11-21T12:12:09;100007.47;;;-0.86;88.36
30949;BME280;17637;51.984;21.208;2023-11-21T12:14:40;100005.38;;;-0.73;87.86
30949;BME280;17637;51.984;21.208;2023-11-21T12:17:13;99982.91;;;-0.90;88.03
30949;BME280;17637;51.984;21.208;2023-11-21T12:19:45;100003.38;;;-0.91;88.48
30949;BME280;17637;51.984;21.208;2023-11-21T12:22:18;100010.06;;;-0.87;88.31
30949;BME280;17637;51.984;21.208;2023-11-21T12:24:50;99997.56;;;-0.96;88.63
30949;BME280;17637;51.984;21.208;2023-11-21T12:27:22;99996.41;;;-1.14;88.81
30949;BME280;17637;51.984;21.208;2023-11-21T12:29:54;100029.91;;;-0.97;88.60
30949;BME280;17637;51.984;21.208;2023-11-21T12:32:28;99977.94;;;-1.23;88.33
30949;BME280;17637;51.984;21.208;2023-11-21T12:35:00;100001.38;;;-1.10;87.94
30949;BME280;17637;51.984;21.208;2023-11-21T12:37:34;100019.72;;;-0.97;87.94
30949;BME280;17637;51.984;21.208;2023-11-21T12:40:07;100031.22;;;-1.13;87.46
30949;BME280;17637;51.984;21.208;2023-11-21T12:42:47;100035.00;;;-0.97;88.06
30949;BME280;17637;51.984;21.208;2023-11-21T12:45:22;100041.66;;;-1.21;87.50
30949;BME280;17637;51.984;21.208;2023-11-21T12:50:30;100036.53;;;-0.91;87.19
30949;BME280;17637;51.984;21.208;2023-11-21T12:53:11;100025.91;;;-1.06;86.98
30949;BME280;17637;51.984;21.208;2023-11-21T12:55:48;100025.09;;;-1.08;86.52
30949;BME280;17637;51.984;21.208;2023-11-21T12:58:23;100040.69;;;-0.87;87.67
30949;BME280;17637;51.984;21.208;2023-11-21T13:00:57;100051.94;;;-0.94;87.02
30949;BME280;17637;51.984;21.208;2023-11-21T13:03:31;100034.44;;;-1.07;86.81
30949;BME280;17637;51.984;21.208;2023-11-21T13:06:04;100056.25;;;-0.96;87.06
30949;BME280;17637;51.984;21.208;2023-11-21T13:08:37;100062.69;;;-0.83;87.76
30949;BME280;17637;51.984;21.208;2023-11-21T13:11:11;100056.19;;;-0.93;87.02
30949;BME280;17637;51.984;21.208;2023-11-21T13:13:43;100057.53;;;-1.11;85.11
30949;BME280;17637;51.984;21.208;2023-11-21T13:16:15;100053.25;;;-1.11;85.03
30949;BME280;17637;51.984;21.208;2023-11-21T13:18:47;100063.47;;;-1.11;85.76
30949;BME280;17637;51.984;21.208;2023-11-21T13:21:19;100064.66;;;-1.23;85.78
30949;BME280;17637;51.984;21.208;2023-11-21T13:23:51;100056.25;;;-1.26;86.40
30949;BME280;17637;51.984;21.208;2023-11-21T13:26:24;100069.38;;;-1.09;86.85
30949;BME280;17637;51.984;21.208;2023-11-21T13:28:57;100070.38;;;-1.14;86.94